Hattem, Netherlands
Current Conditions -  °F | °C
As of 6:25 PM on Wednesday 26 Nov 2014 (Local Time) from EHDL Reporting Station
Overcast Overcast  
Wind Chill: 35°   Ceiling: 2000
Heat Index: 41°   Visibility: 6mi
Dew Point: 37°   Wind: 10mph
Humidity: 87%   Direction: 120°ESE
Pressure: 29.88"   Gusts: NA
Location:  52.48°N, 6.06°E
Report Text: EHDL 261725Z AUTO 12009KT 9999 OVC020 05/03 Q1012 WHT
Loading
Personal Weather Stations






























Interactive Weather Map New forecast layout! Learn more

10-Day Weather Forecast

Advertisements
Track Severe Weather on mobile